Time;durP1;ratioP1;P1;durP2;ratioP2;P2;SDS_P1;SDS_P2;PMS_P1;PMS_P2;Temp;Humidity;BMP_temperature;BMP_pressure;BME280_temperature;BME280_humidity;BME280_pressure;Samples;Min_cycle;Max_cycle;Signal;HPM_P1;HPM_P2
2023/01/14 00:01:20;;;;;;;;;;;6.20;99.90;;;;;;4856428;29;19928;-72
2023/01/14 00:03:46;;;;;;;;;;;6.20;99.90;;;;;;4881086;29;19927;-72
2023/01/14 00:06:12;;;;;;;;;;;6.20;99.90;;;;;;4862303;29;19970;-72
2023/01/14 00:08:38;;;;;;;;;;;6.10;99.90;;;;;;4849396;29;19928;-72
2023/01/14 00:11:04;;;;;;;;;;;6.10;99.90;;;;;;4842492;29;19930;-71
2023/01/14 00:13:34;;;;;;;;;;;6.10;99.90;;;;;;4843716;29;19924;-72
2023/01/14 00:16:00;;;;;;;;;;;6.10;99.90;;;;;;4851584;29;20292;-71
2023/01/14 00:18:26;;;;;;;;;;;6.00;99.90;;;;;;4858574;29;19953;-71
2023/01/14 00:20:59;;;;;;;;;;;6.00;99.90;;;;;;4844068;29;20414;-72
2023/01/14 00:23:25;;;;;;;;;;;6.10;99.90;;;;;;4867364;29;19924;-72
2023/01/14 00:25:59;;;;;;;;;;;6.10;99.90;;;;;;4856929;29;19975;-71
2023/01/14 00:28:25;;;;;;;;;;;6.10;99.90;;;;;;4858402;29;19949;-71
2023/01/14 00:30:50;;;;;;;;;;;6.10;99.90;;;;;;4855343;29;20012;-71
2023/01/14 00:33:16;;;;;;;;;;;6.10;99.90;;;;;;4857475;29;19967;-71
2023/01/14 00:35:41;;;;;;;;;;;6.10;99.90;;;;;;4842651;29;19968;-71
2023/01/14 00:38:07;;;;;;;;;;;6.10;99.90;;;;;;4843565;29;19980;-71
2023/01/14 00:40:33;;;;;;;;;;;6.10;99.90;;;;;;4859869;29;19938;-72
2023/01/14 00:42:58;;;;;;;;;;;6.10;99.90;;;;;;4860243;29;19924;-72
2023/01/14 00:45:24;;;;;;;;;;;6.10;99.90;;;;;;4854205;29;19935;-72
2023/01/14 00:47:52;;;;;;;;;;;6.10;99.90;;;;;;4855123;29;19950;-72
2023/01/14 00:50:17;;;;;;;;;;;6.10;99.90;;;;;;4858315;29;19931;-72
2023/01/14 00:52:43;;;;;;;;;;;6.10;99.90;;;;;;4860693;29;20579;-72
2023/01/14 00:55:09;;;;;;;;;;;6.10;99.90;;;;;;4852466;29;20349;-72
2023/01/14 00:57:34;;;;;;;;;;;6.10;99.90;;;;;;4845073;29;20039;-71
2023/01/14 01:00:00;;;;;;;;;;;6.10;99.90;;;;;;4841559;29;20286;-72
2023/01/14 01:02:25;;;;;;;;;;;6.10;99.90;;;;;;4842887;29;19939;-72
2023/01/14 01:04:51;;;;;;;;;;;6.10;99.90;;;;;;4842564;29;20022;-72
2023/01/14 01:07:16;;;;;;;;;;;6.10;99.90;;;;;;4842475;29;19935;-72
2023/01/14 01:09:42;;;;;;;;;;;6.10;99.90;;;;;;4859805;29;19932;-72
2023/01/14 01:12:08;;;;;;;;;;;6.10;99.90;;;;;;4856382;29;19955;-72
2023/01/14 01:14:33;;;;;;;;;;;6.10;99.90;;;;;;4836503;29;19935;-72
2023/01/14 01:16:59;;;;;;;;;;;6.10;99.90;;;;;;4841296;29;19931;-72
2023/01/14 01:19:24;;;;;;;;;;;6.10;99.90;;;;;;4858236;29;19942;-72
2023/01/14 01:21:50;;;;;;;;;;;6.20;99.90;;;;;;4860438;29;20401;-72
2023/01/14 01:24:15;;;;;;;;;;;6.20;99.90;;;;;;4867308;29;19927;-72
2023/01/14 01:26:41;;;;;;;;;;;6.30;99.90;;;;;;4862461;29;20365;-72
2023/01/14 01:29:07;;;;;;;;;;;6.30;99.90;;;;;;4852186;29;19999;-72
2023/01/14 01:31:32;;;;;;;;;;;6.40;99.90;;;;;;4857370;29;19946;-72
2023/01/14 01:33:58;;;;;;;;;;;6.40;99.90;;;;;;4863296;29;19928;-72
2023/01/14 01:36:25;;;;;;;;;;;6.40;99.90;;;;;;4848669;29;20368;-72
2023/01/14 01:38:52;;;;;;;;;;;6.40;99.90;;;;;;4863762;29;20007;-72
2023/01/14 01:41:19;;;;;;;;;;;6.40;99.90;;;;;;4863584;29;20356;-72
2023/01/14 01:44:02;;;;;;;;;;;6.30;99.90;;;;;;4863038;29;19930;-72
2023/01/14 01:46:29;;;;;;;;;;;6.40;99.90;;;;;;4846118;29;19975;-72
2023/01/14 01:48:56;;;;;;;;;;;6.40;99.90;;;;;;4845161;29;19931;-72
2023/01/14 01:51:25;;;;;;;;;;;6.30;99.90;;;;;;4864439;29;19931;-72
2023/01/14 01:53:52;;;;;;;;;;;6.30;99.90;;;;;;4845109;29;19924;-72
2023/01/14 01:56:20;;;;;;;;;;;6.30;99.90;;;;;;4861338;29;20308;-72
2023/01/14 01:58:46;;;;;;;;;;;6.40;99.90;;;;;;4863070;29;20177;-72
2023/01/14 02:01:12;;;;;;;;;;;6.40;99.90;;;;;;4855150;29;19981;-72
2023/01/14 02:03:39;;;;;;;;;;;6.30;99.90;;;;;;4854780;29;20322;-72
2023/01/14 02:06:05;;;;;;;;;;;6.30;99.90;;;;;;4844558;29;19930;-72
2023/01/14 02:08:31;;;;;;;;;;;6.30;99.90;;;;;;4855168;29;19936;-72
2023/01/14 02:11:06;;;;;;;;;;;6.30;99.90;;;;;;4861332;29;19927;-72
2023/01/14 02:14:01;;;;;;;;;;;6.30;99.90;;;;;;4843188;29;20250;-72
2023/01/14 02:16:33;;;;;;;;;;;6.20;99.90;;;;;;4845780;29;19928;-72
2023/01/14 02:19:04;;;;;;;;;;;6.10;99.90;;;;;;4859909;29;20437;-72
2023/01/14 02:21:33;;;;;;;;;;;6.10;99.90;;;;;;4851832;29;19928;-72
2023/01/14 02:24:07;;;;;;;;;;;6.00;99.90;;;;;;4849392;29;20013;-72
2023/01/14 02:26:39;;;;;;;;;;;6.00;99.90;;;;;;4864269;29;19928;-72
2023/01/14 02:29:15;;;;;;;;;;;5.90;99.90;;;;;;4864537;29;19924;-72
2023/01/14 02:31:58;;;;;;;;;;;5.90;99.90;;;;;;4864067;29;20014;-72
2023/01/14 02:34:29;;;;;;;;;;;6.00;99.90;;;;;;4843648;29;19924;-72
2023/01/14 02:37:08;;;;;;;;;;;6.00;99.90;;;;;;4861698;29;20494;-72
2023/01/14 02:39:37;;;;;;;;;;;6.00;99.90;;;;;;4845087;29;19930;-72
2023/01/14 02:44:59;;;;;;;;;;;6.00;99.90;;;;;;4861092;29;20413;-72
2023/01/14 02:47:26;;;;;;;;;;;6.00;99.90;;;;;;4849331;29;20034;-72
2023/01/14 02:49:53;;;;;;;;;;;6.00;99.90;;;;;;4849293;29;19949;-72
2023/01/14 02:52:19;;;;;;;;;;;6.00;99.90;;;;;;4841125;29;19925;-72
2023/01/14 02:55:08;;;;;;;;;;;5.90;99.90;;;;;;4870462;29;19947;-72
2023/01/14 02:57:54;;;;;;;;;;;5.70;99.90;;;;;;4862029;29;19930;-72
2023/01/14 03:00:25;;;;;;;;;;;5.60;99.90;;;;;;4858272;29;19924;-72
2023/01/14 03:03:00;;;;;;;;;;;5.50;99.90;;;;;;4859790;29;19989;-72
2023/01/14 03:05:26;;;;;;;;;;;5.40;99.90;;;;;;4847739;29;19924;-72
2023/01/14 03:07:55;;;;;;;;;;;5.30;99.90;;;;;;4864327;29;20008;-72
2023/01/14 03:10:25;;;;;;;;;;;5.30;99.90;;;;;;4864205;29;19928;-72
2023/01/14 03:13:13;;;;;;;;;;;5.20;99.90;;;;;;4845842;29;19971;-72
2023/01/14 03:15:43;;;;;;;;;;;5.10;99.90;;;;;;4853723;29;19924;-72
2023/01/14 03:18:15;;;;;;;;;;;5.00;99.90;;;;;;4838458;29;19991;-72
2023/01/14 03:20:42;;;;;;;;;;;4.90;99.90;;;;;;4863417;29;19984;-72
2023/01/14 03:23:10;;;;;;;;;;;4.90;99.90;;;;;;4852238;29;20019;-72
2023/01/14 03:25:39;;;;;;;;;;;4.80;99.90;;;;;;4860903;29;19928;-72
2023/01/14 03:28:06;;;;;;;;;;;4.80;99.90;;;;;;4862677;29;19975;-72
2023/01/14 03:30:34;;;;;;;;;;;4.70;99.90;;;;;;4841566;29;19923;-72
2023/01/14 03:33:02;;;;;;;;;;;4.70;99.90;;;;;;4847443;29;20425;-72
2023/01/14 03:35:31;;;;;;;;;;;4.60;99.90;;;;;;4879157;29;20380;-72
2023/01/14 03:38:05;;;;;;;;;;;4.60;99.90;;;;;;4848367;29;19996;-72
2023/01/14 03:40:32;;;;;;;;;;;4.60;99.90;;;;;;4855999;29;19931;-72
2023/01/14 03:43:04;;;;;;;;;;;4.50;99.90;;;;;;4847224;29;19924;-72
2023/01/14 03:45:32;;;;;;;;;;;4.60;99.90;;;;;;4855333;29;20342;-72
2023/01/14 03:47:58;;;;;;;;;;;4.50;99.90;;;;;;4846289;29;20329;-72
2023/01/14 03:50:27;;;;;;;;;;;4.50;99.90;;;;;;4861449;29;19962;-72
2023/01/14 03:53:05;;;;;;;;;;;4.50;99.90;;;;;;4860233;29;20011;-72
2023/01/14 03:55:43;;;;;;;;;;;4.50;99.90;;;;;;4858151;29;19924;-72
2023/01/14 03:58:15;;;;;;;;;;;4.50;99.90;;;;;;4859426;29;19950;-72
2023/01/14 04:00:50;;;;;;;;;;;4.50;99.90;;;;;;4862328;29;19993;-72
2023/01/14 04:03:16;;;;;;;;;;;4.50;99.90;;;;;;4876183;29;19934;-72
2023/01/14 04:05:41;;;;;;;;;;;4.40;99.90;;;;;;4860884;29;20026;-72
2023/01/14 04:08:10;;;;;;;;;;;4.40;99.90;;;;;;4862889;29;19935;-72
2023/01/14 04:10:36;;;;;;;;;;;4.50;99.90;;;;;;4862230;29;19935;-72
2023/01/14 04:15:46;;;;;;;;;;;4.40;99.90;;;;;;4855950;29;20237;-72
2023/01/14 04:18:12;;;;;;;;;;;4.40;99.90;;;;;;4873002;29;20012;-72
2023/01/14 04:20:37;;;;;;;;;;;4.50;99.90;;;;;;4846395;29;19928;-72
2023/01/14 04:23:03;;;;;;;;;;;4.50;99.90;;;;;;4849828;29;19930;-72
2023/01/14 04:25:28;;;;;;;;;;;4.50;99.90;;;;;;4854314;29;19987;-72
2023/01/14 04:27:54;;;;;;;;;;;4.50;99.90;;;;;;4842972;29;20043;-72
2023/01/14 04:30:20;;;;;;;;;;;4.60;99.90;;;;;;4861878;29;19923;-72
2023/01/14 04:32:46;;;;;;;;;;;4.60;99.90;;;;;;4863077;29;20018;-72
2023/01/14 04:35:11;;;;;;;;;;;4.70;99.90;;;;;;4847425;29;19934;-72
2023/01/14 04:37:37;;;;;;;;;;;4.70;99.90;;;;;;4861810;29;19927;-72
2023/01/14 04:40:03;;;;;;;;;;;4.80;99.90;;;;;;4845445;29;19932;-72
2023/01/14 04:42:30;;;;;;;;;;;4.80;99.90;;;;;;4845003;29;20357;-72
2023/01/14 04:44:56;;;;;;;;;;;4.80;99.90;;;;;;4861123;29;19928;-72
2023/01/14 04:47:23;;;;;;;;;;;4.80;99.90;;;;;;4848373;29;19931;-72
2023/01/14 04:49:49;;;;;;;;;;;4.80;99.90;;;;;;4856014;29;19935;-72
2023/01/14 04:52:14;;;;;;;;;;;4.80;99.90;;;;;;4861908;29;19930;-72
2023/01/14 04:54:40;;;;;;;;;;;4.80;99.90;;;;;;4860233;29;19950;-72
2023/01/14 04:57:05;;;;;;;;;;;4.80;99.90;;;;;;4861987;29;19928;-72
2023/01/14 04:59:32;;;;;;;;;;;4.80;99.90;;;;;;4859466;29;19932;-72
2023/01/14 05:01:58;;;;;;;;;;;4.80;99.90;;;;;;4859580;29;20385;-72
2023/01/14 05:04:23;;;;;;;;;;;4.70;99.90;;;;;;4843669;29;19976;-72
2023/01/14 05:06:49;;;;;;;;;;;4.80;99.90;;;;;;4844151;29;19924;-72
2023/01/14 05:09:15;;;;;;;;;;;4.80;99.90;;;;;;4860861;29;19962;-72
2023/01/14 05:11:40;;;;;;;;;;;4.80;99.90;;;;;;4847184;29;20342;-72
2023/01/14 05:14:06;;;;;;;;;;;4.80;99.90;;;;;;4845007;29;19990;-72
2023/01/14 05:16:32;;;;;;;;;;;4.80;99.90;;;;;;4842272;29;20279;-72
2023/01/14 05:18:57;;;;;;;;;;;4.80;99.90;;;;;;4860895;29;19924;-72
2023/01/14 05:21:24;;;;;;;;;;;4.80;99.90;;;;;;4879406;29;19932;-72
2023/01/14 05:23:49;;;;;;;;;;;4.80;99.90;;;;;;4848597;29;19924;-72
2023/01/14 05:26:15;;;;;;;;;;;4.70;99.90;;;;;;4839945;29;19932;-72
2023/01/14 05:28:41;;;;;;;;;;;4.80;99.90;;;;;;4845817;29;20015;-72
2023/01/14 05:31:06;;;;;;;;;;;4.80;99.90;;;;;;4854865;29;19928;-72
2023/01/14 05:33:32;;;;;;;;;;;4.70;99.90;;;;;;4830291;29;19964;-72
2023/01/14 05:35:59;;;;;;;;;;;4.80;99.90;;;;;;4858078;29;20385;-72
2023/01/14 05:38:25;;;;;;;;;;;4.80;99.90;;;;;;4851480;29;20014;-72
2023/01/14 05:40:51;;;;;;;;;;;4.70;99.90;;;;;;4855299;29;19928;-72
2023/01/14 05:46:14;;;;;;;;;;;4.70;99.90;;;;;;4861713;29;19924;-72
2023/01/14 05:48:40;;;;;;;;;;;4.70;99.90;;;;;;4856783;29;19932;-72
2023/01/14 05:51:06;;;;;;;;;;;4.70;99.90;;;;;;4865822;29;19928;-72
2023/01/14 05:53:32;;;;;;;;;;;4.70;99.90;;;;;;4841624;29;19980;-72
2023/01/14 05:55:58;;;;;;;;;;;4.70;99.90;;;;;;4859289;29;20022;-72
2023/01/14 05:58:24;;;;;;;;;;;4.70;99.90;;;;;;4859515;29;20028;-72
2023/01/14 06:06:21;;;;;;;;;;;4.80;99.90;;;;;;4860803;29;19924;-72
2023/01/14 06:08:46;;;;;;;;;;;4.80;99.90;;;;;;4843424;29;19980;-72
2023/01/14 06:11:12;;;;;;;;;;;4.80;99.90;;;;;;4858528;29;19925;-72
2023/01/14 06:13:38;;;;;;;;;;;4.80;99.90;;;;;;4846591;29;19930;-72
2023/01/14 06:16:06;;;;;;;;;;;4.80;99.90;;;;;;4840663;29;19923;-72
2023/01/14 06:18:38;;;;;;;;;;;4.80;99.90;;;;;;4864159;29;19963;-72
2023/01/14 06:21:06;;;;;;;;;;;4.80;99.90;;;;;;4864235;29;19928;-72
2023/01/14 06:23:31;;;;;;;;;;;4.80;99.90;;;;;;4864234;29;19980;-72
2023/01/14 06:25:57;;;;;;;;;;;4.90;99.90;;;;;;4845802;29;19928;-72
2023/01/14 06:28:22;;;;;;;;;;;4.90;99.90;;;;;;4849427;29;19976;-72
2023/01/14 06:30:48;;;;;;;;;;;4.90;99.90;;;;;;4859880;29;19935;-72
2023/01/14 06:33:14;;;;;;;;;;;4.90;99.90;;;;;;4862407;29;19924;-72
2023/01/14 06:35:41;;;;;;;;;;;4.90;99.90;;;;;;4845014;29;19928;-72
2023/01/14 06:38:06;;;;;;;;;;;4.80;99.90;;;;;;4862155;29;20400;-72
2023/01/14 06:40:32;;;;;;;;;;;4.80;99.90;;;;;;4853072;29;19932;-72
2023/01/14 06:42:57;;;;;;;;;;;4.90;99.90;;;;;;4846254;29;19923;-72
2023/01/14 06:45:24;;;;;;;;;;;4.90;99.90;;;;;;4837924;29;19987;-72
2023/01/14 06:47:50;;;;;;;;;;;4.90;99.90;;;;;;4863298;29;19931;-72
2023/01/14 06:50:18;;;;;;;;;;;4.90;99.90;;;;;;4853999;29;19925;-72
2023/01/14 06:52:44;;;;;;;;;;;4.90;99.90;;;;;;4863667;29;19975;-72
2023/01/14 06:55:10;;;;;;;;;;;5.00;99.90;;;;;;4856544;29;20976;-72
2023/01/14 06:57:35;;;;;;;;;;;5.00;99.90;;;;;;4855804;29;19924;-72
2023/01/14 07:00:01;;;;;;;;;;;5.00;99.90;;;;;;4860980;29;20126;-72
2023/01/14 07:02:27;;;;;;;;;;;5.00;99.90;;;;;;4847447;29;19934;-72
2023/01/14 07:04:52;;;;;;;;;;;5.00;99.90;;;;;;4851177;29;20083;-72
2023/01/14 07:07:18;;;;;;;;;;;5.00;99.90;;;;;;4879166;29;20039;-72
2023/01/14 07:09:44;;;;;;;;;;;5.00;99.90;;;;;;4842200;29;19931;-72
2023/01/14 07:12:10;;;;;;;;;;;5.00;99.90;;;;;;4846394;29;19950;-72
2023/01/14 07:14:35;;;;;;;;;;;5.00;99.90;;;;;;4847989;29;20014;-72
2023/01/14 07:17:01;;;;;;;;;;;5.00;99.90;;;;;;4862448;29;19924;-72
2023/01/14 07:19:27;;;;;;;;;;;5.00;99.90;;;;;;4832952;29;19931;-72
2023/01/14 07:21:53;;;;;;;;;;;5.10;99.90;;;;;;4851922;29;19927;-72
2023/01/14 07:24:18;;;;;;;;;;;5.10;99.90;;;;;;4848514;29;19938;-72
2023/01/14 07:26:44;;;;;;;;;;;5.10;99.90;;;;;;4861975;29;19923;-72
2023/01/14 07:29:10;;;;;;;;;;;5.10;99.90;;;;;;4832817;29;20322;-72
2023/01/14 07:31:35;;;;;;;;;;;5.10;99.90;;;;;;4848356;29;19924;-72
2023/01/14 07:34:01;;;;;;;;;;;5.20;99.90;;;;;;4842637;29;20353;-72
2023/01/14 07:36:26;;;;;;;;;;;5.10;99.90;;;;;;4844175;29;19928;-72
2023/01/14 07:38:52;;;;;;;;;;;5.20;99.90;;;;;;4846757;29;19924;-72
2023/01/14 07:41:18;;;;;;;;;;;5.20;99.90;;;;;;4838966;29;19931;-72
2023/01/14 07:43:47;;;;;;;;;;;5.20;99.90;;;;;;4840993;29;19924;-72
2023/01/14 07:46:13;;;;;;;;;;;5.30;99.90;;;;;;4858439;29;19977;-72
2023/01/14 07:48:39;;;;;;;;;;;5.30;99.90;;;;;;4855960;29;19970;-72
2023/01/14 07:51:05;;;;;;;;;;;5.30;99.90;;;;;;4857681;29;19924;-72
2023/01/14 07:53:31;;;;;;;;;;;5.30;99.90;;;;;;4855012;29;19924;-72
2023/01/14 07:55:59;;;;;;;;;;;5.30;99.90;;;;;;4862016;29;19949;-72
2023/01/14 07:58:25;;;;;;;;;;;5.30;99.90;;;;;;4860220;29;19928;-72
2023/01/14 08:00:50;;;;;;;;;;;5.30;99.90;;;;;;4844589;29;20601;-72
2023/01/14 08:03:16;;;;;;;;;;;5.30;99.90;;;;;;4856425;29;20040;-72
2023/01/14 08:05:41;;;;;;;;;;;5.30;99.90;;;;;;4858695;29;20679;-73
2023/01/14 08:08:07;;;;;;;;;;;5.30;99.90;;;;;;4854004;29;19930;-72
2023/01/14 08:10:33;;;;;;;;;;;5.30;99.90;;;;;;4850934;29;19974;-72
2023/01/14 08:12:58;;;;;;;;;;;5.30;99.90;;;;;;4859476;29;20345;-72
2023/01/14 08:18:46;;;;;;;;;;;5.30;99.90;;;;;;4873724;29;19922;-72
2023/01/14 08:21:12;;;;;;;;;;;5.30;99.90;;;;;;4857715;29;19928;-72
2023/01/14 10:36:35;;;;;;;;;;;6.20;99.90;;;;;;2781456;23;20396;-70
2023/01/14 10:39:02;;;;;;;;;;;6.20;99.90;;;;;;4863583;29;19938;-69
2023/01/14 10:44:17;;;;;;;;;;;6.30;99.90;;;;;;4870899;29;20383;-70
2023/01/14 10:46:45;;;;;;;;;;;6.30;99.90;;;;;;4873390;29;19928;-70
2023/01/14 10:49:16;;;;;;;;;;;6.40;99.90;;;;;;4858224;29;20508;-70
2023/01/14 10:51:51;;;;;;;;;;;6.40;99.90;;;;;;4871665;29;20153;-69
2023/01/14 10:54:18;;;;;;;;;;;6.40;99.90;;;;;;4852784;29;20663;-69
2023/01/14 10:56:46;;;;;;;;;;;6.40;99.90;;;;;;4885022;29;19969;-69
2023/01/14 10:59:24;;;;;;;;;;;6.40;99.90;;;;;;4874794;29;19927;-69
2023/01/14 11:01:49;;;;;;;;;;;6.40;99.90;;;;;;4887882;29;19934;-69
2023/01/14 11:04:15;;;;;;;;;;;6.40;99.90;;;;;;4863816;29;19923;-69
2023/01/14 11:06:41;;;;;;;;;;;6.40;99.90;;;;;;4852250;29;19923;-69
2023/01/14 11:09:16;;;;;;;;;;;6.40;99.90;;;;;;4853177;29;20585;-70
2023/01/14 11:11:42;;;;;;;;;;;6.40;99.90;;;;;;4852895;29;19931;-69
2023/01/14 11:14:17;;;;;;;;;;;6.40;99.90;;;;;;4871826;29;20597;-69
2023/01/14 11:16:42;;;;;;;;;;;6.40;99.90;;;;;;4869434;29;20359;-69
2023/01/14 11:19:14;;;;;;;;;;;6.50;99.90;;;;;;4872176;29;20167;-69
2023/01/14 11:21:41;;;;;;;;;;;6.50;99.90;;;;;;4870157;29;19931;-69
2023/01/14 11:24:18;;;;;;;;;;;6.50;99.90;;;;;;4856159;29;19985;-69
2023/01/14 11:26:44;;;;;;;;;;;6.50;99.90;;;;;;4857798;29;20035;-69
2023/01/14 11:29:12;;;;;;;;;;;6.60;99.90;;;;;;4857508;29;19990;-69
2023/01/14 11:31:38;;;;;;;;;;;6.60;99.90;;;;;;4872602;29;19962;-69
2023/01/14 11:34:04;;;;;;;;;;;6.60;99.90;;;;;;4857217;29;19977;-69
2023/01/14 11:36:32;;;;;;;;;;;6.60;99.90;;;;;;4873559;29;19928;-69
2023/01/14 11:38:59;;;;;;;;;;;6.60;99.90;;;;;;4869675;29;20034;-69
2023/01/14 11:41:30;;;;;;;;;;;6.60;99.90;;;;;;4867160;29;20002;-69
2023/01/14 11:44:14;;;;;;;;;;;6.60;99.90;;;;;;4855257;29;19924;-69
2023/01/14 11:46:43;;;;;;;;;;;6.60;99.90;;;;;;4868119;29;19935;-69
2023/01/14 11:49:17;;;;;;;;;;;6.70;99.90;;;;;;4867268;29;20022;-69
2023/01/14 11:52:02;;;;;;;;;;;6.70;99.90;;;;;;4865625;29;20003;-71
2023/01/14 11:54:38;;;;;;;;;;;6.70;99.90;;;;;;4870178;29;19981;-71
2023/01/14 11:57:04;;;;;;;;;;;6.70;99.90;;;;;;4889357;29;20332;-70
2023/01/14 11:59:31;;;;;;;;;;;6.80;99.90;;;;;;4872752;29;19976;-70
2023/01/14 12:02:03;;;;;;;;;;;6.80;99.90;;;;;;4876962;29;19923;-70
2023/01/14 12:05:01;;;;;;;;;;;6.90;99.90;;;;;;4877175;29;19930;-71
2023/01/14 12:07:27;;;;;;;;;;;6.90;99.90;;;;;;4828337;29;20329;-71
2023/01/14 12:10:04;;;;;;;;;;;6.90;99.90;;;;;;4873700;29;19931;-71
2023/01/14 12:18:09;;;;;;;;;;;7.10;99.90;;;;;;4874694;29;19927;-71
2023/01/14 12:20:36;;;;;;;;;;;7.10;99.90;;;;;;4877700;29;19982;-71
2023/01/14 12:23:10;;;;;;;;;;;7.20;99.90;;;;;;4847302;29;19927;-71
2023/01/14 12:25:38;;;;;;;;;;;7.20;99.90;;;;;;4869153;29;19933;-72
2023/01/14 12:28:12;;;;;;;;;;;7.30;99.90;;;;;;4873624;29;19930;-71
2023/01/14 12:30:41;;;;;;;;;;;7.30;99.90;;;;;;4876160;29;20534;-71
2023/01/14 12:48:26;;;;;;;4.05;1.30;;;7.90;99.90;;;;;;5085306;22;20833;-81
2023/01/14 12:50:51;;;;;;;3.92;0.95;;;7.90;99.90;;;;;;5049597;28;20091;-80
2023/01/14 12:53:29;;;;;;;2.63;0.60;;;7.90;99.90;;;;;;5067572;28;20037;-80
2023/01/14 12:55:58;;;;;;;1.75;0.70;;;7.90;99.90;;;;;;5066265;28;20083;-80
2023/01/14 12:58:28;;;;;;;2.08;0.90;;;7.90;99.90;;;;;;5065317;28;20050;-80
2023/01/14 13:01:05;;;;;;;4.85;0.70;;;8.00;99.90;;;;;;5048930;28;20029;-81
2023/01/14 13:03:39;;;;;;;3.47;0.90;;;8.00;99.90;;;;;;5053898;28;20039;-80
2023/01/14 13:06:12;;;;;;;2.42;0.80;;;8.10;99.90;;;;;;5065611;28;20036;-81
2023/01/14 13:08:38;;;;;;;3.60;0.90;;;8.10;99.90;;;;;;5048597;28;20047;-80
2023/01/14 13:11:17;;;;;;;2.05;0.70;;;8.20;99.90;;;;;;5034274;28;20115;-80
2023/01/14 13:13:50;;;;;;;3.33;0.95;;;8.20;99.90;;;;;;5066848;28;20040;-81
2023/01/14 13:16:34;;;;;;;2.95;1.00;;;8.30;99.90;;;;;;5071311;28;20484;-81
2023/01/14 13:19:02;;;;;;;2.53;1.00;;;8.40;99.90;;;;;;5064878;28;20135;-80
2023/01/14 13:22:00;;;;;;;3.45;1.70;;;8.40;99.90;;;;;;5066896;28;20068;-81
2023/01/14 13:24:37;;;;;;;3.65;1.50;;;8.50;99.90;;;;;;5064813;28;20040;-81
2023/01/14 13:27:34;;;;;;;4.53;1.25;;;8.40;99.90;;;;;;5050806;28;20116;-81
2023/01/14 13:30:18;;;;;;;3.83;1.27;;;8.50;99.90;;;;;;5065570;28;20070;-80
2023/01/14 13:32:59;;;;;;;2.92;1.50;;;8.50;99.90;;;;;;5067174;28;20041;-80
2023/01/14 13:35:31;;;;;;;2.67;1.38;;;8.50;99.90;;;;;;5048183;28;20040;-80
2023/01/14 13:37:59;;;;;;;5.50;1.60;;;8.50;99.90;;;;;;5053451;28;20480;-79
2023/01/14 13:40:36;;;;;;;5.18;1.88;;;8.50;99.90;;;;;;5051477;28;20073;-81
2023/01/14 13:43:04;;;;;;;3.63;1.38;;;8.50;99.90;;;;;;5035680;28;20118;-80
2023/01/14 13:45:34;;;;;;;2.70;1.30;;;8.50;99.90;;;;;;5052845;28;20047;-81
2023/01/14 13:48:28;;;;;;;4.13;1.40;;;8.50;99.90;;;;;;5040065;28;20072;-80
2023/01/14 13:51:17;;;;;;;6.55;1.40;;;8.50;99.90;;;;;;5043483;28;20049;-79
2023/01/14 13:53:55;;;;;;;2.55;1.23;;;8.60;99.90;;;;;;5027371;28;20048;-81
2023/01/14 13:56:22;;;;;;;5.97;1.70;;;8.60;99.90;;;;;;5034292;28;20064;-80
2023/01/14 13:58:53;;;;;;;3.30;1.70;;;8.60;99.90;;;;;;5038708;28;20071;-81
2023/01/14 14:01:26;;;;;;;2.72;2.45;;;8.60;99.90;;;;;;5032375;28;20037;-81
2023/01/14 14:03:54;;;;;;;4.25;1.30;;;8.60;99.90;;;;;;5032196;28;20048;-81
2023/01/14 14:06:19;;;;;;;2.47;1.48;;;8.60;99.90;;;;;;5019846;28;20079;-80
2023/01/14 14:09:00;;;;;;;2.17;1.60;;;8.70;99.90;;;;;;5042931;28;20052;-80
2023/01/14 14:11:41;;;;;;;3.15;1.27;;;8.70;99.90;;;;;;5032252;28;20063;-79
2023/01/14 14:14:17;;;;;;;4.88;1.70;;;8.70;99.90;;;;;;5028035;28;20467;-80
2023/01/14 14:16:54;;;;;;;3.17;1.50;;;8.70;99.90;;;;;;5033597;28;20134;-80
2023/01/14 14:19:44;;;;;;;1.98;1.05;;;8.70;99.90;;;;;;5034717;28;20091;-81
2023/01/14 14:22:17;;;;;;;3.95;1.75;;;8.70;99.90;;;;;;5044243;28;20501;-82
2023/01/14 14:24:53;;;;;;;3.45;1.50;;;8.70;99.90;;;;;;5056845;28;20099;-80
2023/01/14 14:27:34;;;;;;;1.63;0.95;;;8.70;99.90;;;;;;5021958;28;20049;-80
2023/01/14 14:30:25;;;;;;;1.30;0.90;;;8.70;99.90;;;;;;5049816;28;20051;-81
2023/01/14 14:32:50;;;;;;;3.38;1.17;;;8.70;99.90;;;;;;5034916;28;20037;-81
2023/01/14 14:35:20;;;;;;;1.43;1.10;;;8.80;99.90;;;;;;5016882;28;20041;-81
2023/01/14 14:37:54;;;;;;;2.75;0.95;;;8.80;99.90;;;;;;5030478;28;20048;-81
2023/01/14 14:40:40;;;;;;;1.98;1.05;;;8.80;99.90;;;;;;5053107;28;20072;-81
2023/01/14 14:43:20;;;;;;;2.85;1.20;;;8.70;99.90;;;;;;5033959;28;20056;-80
2023/01/14 14:46:01;;;;;;;2.28;1.27;;;8.70;99.90;;;;;;5016836;28;20097;-80
2023/01/14 14:48:30;;;;;;;1.73;1.35;;;8.80;99.90;;;;;;5034138;28;20150;-81
2023/01/14 14:50:56;;;;;;;2.97;1.17;;;8.80;99.90;;;;;;5035299;28;20037;-81
2023/01/14 14:53:29;;;;;;;3.10;1.10;;;8.80;99.90;;;;;;5018938;28;20037;-81
2023/01/14 14:55:57;;;;;;;2.58;1.50;;;8.80;99.90;;;;;;5031925;28;20067;-80
2023/01/14 14:58:23;;;;;;;3.95;1.42;;;8.80;99.90;;;;;;5010713;28;20040;-80
2023/01/14 15:00:58;;;;;;;3.30;1.97;;;8.80;99.90;;;;;;5018991;28;20433;-80
2023/01/14 15:03:26;;;;;;;3.90;1.80;;;8.80;99.90;;;;;;5026325;28;20069;-82
2023/01/14 15:05:52;;;;;;;2.72;1.80;;;8.80;99.90;;;;;;5052702;28;20041;-81
2023/01/14 15:08:25;;;;;;;4.25;1.75;;;8.80;99.90;;;;;;5013434;28;20041;-81
2023/01/14 15:10:52;;;;;;;2.42;1.40;;;8.80;99.90;;;;;;5034238;28;20056;-80
2023/01/14 15:13:29;;;;;;;2.33;1.63;;;8.80;99.90;;;;;;5013186;28;20107;-80
2023/01/14 15:16:25;;;;;;;5.32;1.90;;;8.80;99.90;;;;;;5022882;28;20065;-80
2023/01/14 15:18:56;;;;;;;;;;;8.90;99.90;;;;;;5012329;28;20052;-80
2023/01/14 15:21:31;;;;;;;2.75;1.85;;;8.80;99.90;;;;;;5026687;28;19970;-81
2023/01/14 15:24:00;;;;;;;2.78;1.60;;;8.80;99.90;;;;;;5045267;28;20041;-81
2023/01/14 15:26:34;;;;;;;3.08;1.75;;;8.90;99.90;;;;;;5020280;28;20613;-81
2023/01/14 15:29:00;;;;;;;2.83;1.90;;;8.90;99.90;;;;;;5019884;28;20048;-80
2023/01/14 15:31:32;;;;;;;3.70;2.67;;;8.90;99.90;;;;;;5023639;28;20413;-80
2023/01/14 15:34:01;;;;;;;2.72;2.10;;;8.90;99.90;;;;;;5016916;28;20486;-80
2023/01/14 15:36:30;;;;;;;3.33;1.98;;;8.90;99.90;;;;;;5033688;28;20230;-81
2023/01/14 15:38:56;;;;;;;3.58;2.40;;;8.90;99.90;;;;;;5027103;28;20044;-80
2023/01/14 15:41:24;;;;;;;3.80;1.90;;;8.90;99.90;;;;;;5026367;28;20040;-81
2023/01/14 15:43:51;;;;;;;2.97;2.20;;;8.90;99.90;;;;;;4997840;28;20083;-80
2023/01/14 15:46:21;;;;;;;3.67;2.17;;;8.90;99.90;;;;;;4998704;28;20041;-80
2023/01/14 15:48:57;;;;;;;3.83;2.42;;;8.90;99.90;;;;;;5028331;28;20074;-80
2023/01/14 15:51:24;;;;;;;4.05;1.90;;;9.00;99.90;;;;;;5027255;28;20110;-80
2023/01/14 15:53:50;;;;;;;4.05;2.58;;;9.00;99.90;;;;;;5028451;28;20071;-80
2023/01/14 15:56:18;;;;;;;3.57;2.30;;;9.00;99.90;;;;;;5015616;28;20127;-80
2023/01/14 15:58:56;;;;;;;3.65;2.20;;;9.00;99.90;;;;;;5048928;28;20365;-80
2023/01/14 16:01:30;;;;;;;3.70;2.35;;;9.00;99.90;;;;;;5032414;28;20036;-80
2023/01/14 16:03:57;;;;;;;2.13;1.75;;;9.10;99.90;;;;;;5029820;28;20037;-80
2023/01/14 16:06:40;;;;;;;4.00;2.40;;;9.10;99.90;;;;;;5030883;28;20090;-81
2023/01/14 16:09:12;;;;;;;2.92;1.95;;;9.20;99.90;;;;;;5024917;28;20505;-80
2023/01/14 16:11:53;;;;;;;3.95;2.40;;;9.20;99.90;;;;;;5031427;28;20052;-80
2023/01/14 16:14:34;;;;;;;5.72;4.68;;;9.30;99.90;;;;;;5030801;28;20047;-81
2023/01/14 16:17:01;;;;;;;3.85;1.98;;;9.30;99.90;;;;;;5021946;28;20041;-80
2023/01/14 16:19:27;;;;;;;5.00;1.95;;;9.30;99.90;;;;;;5030410;28;20405;-80
2023/01/14 16:21:52;;;;;;;5.03;1.53;;;9.40;99.90;;;;;;5013817;28;20032;-80
2023/01/14 16:24:18;;;;;;;3.23;2.30;;;9.50;99.90;;;;;;5036187;28;20040;-81
2023/01/14 16:26:44;;;;;;;7.53;2.47;;;9.50;99.90;;;;;;5013135;28;20045;-81
2023/01/14 16:29:10;;;;;;;6.70;2.13;;;9.60;99.90;;;;;;5013672;28;20072;-80
2023/01/14 16:31:36;;;;;;;8.30;4.45;;;9.60;99.90;;;;;;5029936;28;20287;-80
2023/01/14 16:34:02;;;;;;;20.40;12.77;;;9.70;99.90;;;;;;5015822;28;20060;-80
2023/01/14 16:36:28;;;;;;;6.10;1.77;;;9.60;99.90;;;;;;5030926;28;20087;-80
2023/01/14 16:38:53;;;;;;;3.90;1.73;;;9.70;99.90;;;;;;5002057;28;20489;-80
2023/01/14 16:41:20;;;;;;;7.87;4.40;;;9.60;99.90;;;;;;5013685;28;20116;-80
2023/01/14 16:43:48;;;;;;;11.82;6.03;;;9.60;99.90;;;;;;5013217;28;20040;-81
2023/01/14 16:46:15;;;;;;;9.10;4.32;;;9.70;99.90;;;;;;5047273;28;20040;-81
2023/01/14 16:48:40;;;;;;;11.80;2.85;;;9.60;99.90;;;;;;5027760;28;20092;-81
2023/01/14 16:51:16;;;;;;;9.23;2.17;;;9.70;99.90;;;;;;5032335;28;20138;-80
2023/01/14 16:53:42;;;;;;;13.80;4.10;;;9.70;99.90;;;;;;5032392;28;20044;-81
2023/01/14 16:56:08;;;;;;;7.03;3.30;;;9.70;99.90;;;;;;5004390;28;20048;-81
2023/01/14 16:58:34;;;;;;;8.07;4.20;;;9.60;99.90;;;;;;5003390;28;20764;-80
2023/01/14 17:01:01;;;;;;;13.87;5.03;;;9.60;99.90;;;;;;4985915;28;20049;-81
2023/01/14 17:03:26;;;;;;;15.50;3.72;;;9.60;99.90;;;;;;5049207;28;20075;-81
2023/01/14 17:05:52;;;;;;;15.23;3.50;;;9.60;99.90;;;;;;4996536;28;20046;-80